createdAt,value
2018-09-20T00:02:17.561Z,71.31
2018-09-20T00:04:46.566Z,71.23
2018-09-20T00:07:16.442Z,70.47
2018-09-20T00:09:45.425Z,70.33
2018-09-20T00:12:14.758Z,70.38
2018-09-20T00:14:44.379Z,69.96
2018-09-20T00:17:13.167Z,70.16
2018-09-20T00:19:42.664Z,69.92
2018-09-20T00:22:11.567Z,69.81
2018-09-20T00:24:40.477Z,70.30
2018-09-20T00:27:09.342Z,70.57
2018-09-20T00:29:38.806Z,70.27
2018-09-20T00:32:07.672Z,69.50
2018-09-20T00:34:36.601Z,70.29
2018-09-20T00:37:05.559Z,69.68
2018-09-20T00:39:34.447Z,69.54
2018-09-20T00:42:03.474Z,69.76
2018-09-20T00:44:32.459Z,69.53
2018-09-20T00:47:02.500Z,69.17
2018-09-20T00:49:31.515Z,69.52
2018-09-20T00:52:01.243Z,69.73
2018-09-20T00:54:30.095Z,69.23
2018-09-20T00:56:58.920Z,68.97
2018-09-20T00:59:28.423Z,69.51
2018-09-20T01:01:57.264Z,69.04
2018-09-20T01:04:26.681Z,69.47
2018-09-20T01:06:56.265Z,69.14
2018-09-20T01:09:39.752Z,69.14
2018-09-20T01:12:09.098Z,69.19
2018-09-20T01:14:38.491Z,68.83
2018-09-20T01:17:07.313Z,68.91
2018-09-20T01:19:36.803Z,68.85
2018-09-20T01:22:05.921Z,68.82
2018-09-20T01:25:03.259Z,69.13
2018-09-20T01:27:32.096Z,69.16
2018-09-20T01:30:02.419Z,68.79
2018-09-20T01:32:31.400Z,69.00
2018-09-20T01:35:00.494Z,68.60
2018-09-20T01:37:29.395Z,69.15
2018-09-20T01:39:58.447Z,68.65
2018-09-20T01:42:27.338Z,68.52
2018-09-20T01:44:56.173Z,68.97
2018-09-20T01:47:25.781Z,68.82
2018-09-20T01:49:54.959Z,67.85
2018-09-20T01:52:24.512Z,68.84
2018-09-20T01:54:53.450Z,68.08
2018-09-20T01:57:22.215Z,68.23
2018-09-20T01:59:51.998Z,68.53
2018-09-20T02:02:21.275Z,68.73
2018-09-20T02:04:50.035Z,68.29
2018-09-20T02:07:20.826Z,68.03
2018-09-20T02:09:50.048Z,68.67
2018-09-20T02:12:19.973Z,68.82
2018-09-20T02:14:49.858Z,68.96
2018-09-20T02:17:19.001Z,68.82
2018-09-20T02:19:48.003Z,67.97
2018-09-20T02:22:17.169Z,67.86
2018-09-20T02:24:46.099Z,67.99
2018-09-20T02:27:15.206Z,68.75
2018-09-20T02:29:44.732Z,68.85
2018-09-20T02:32:13.528Z,68.62
2018-09-20T02:34:42.304Z,68.99
2018-09-20T02:37:11.105Z,68.80
2018-09-20T02:39:39.977Z,68.99
2018-09-20T02:42:09.029Z,68.20
2018-09-20T02:44:37.947Z,68.34
2018-09-20T02:47:07.561Z,68.66
2018-09-20T02:49:36.509Z,68.42
2018-09-20T02:52:06.017Z,68.89
2018-09-20T02:54:34.876Z,68.25
2018-09-20T02:57:03.840Z,68.21
2018-09-20T02:59:33.438Z,67.61
2018-09-20T03:02:02.529Z,68.34
2018-09-20T03:04:31.473Z,69.20
2018-09-20T03:07:00.998Z,68.75
2018-09-20T03:09:29.821Z,68.72
2018-09-20T03:11:58.675Z,70.17
2018-09-20T03:14:28.335Z,72.35
2018-09-20T03:16:57.312Z,73.14
2018-09-20T03:19:26.118Z,73.33
2018-09-20T03:21:54.949Z,74.34
2018-09-20T03:24:23.749Z,75.29
2018-09-20T03:26:53.542Z,76.54
2018-09-20T03:29:23.160Z,77.35
2018-09-20T03:31:52.157Z,78.10
2018-09-20T03:34:20.975Z,78.27
2018-09-20T03:36:50.818Z,77.25
2018-09-20T03:39:19.805Z,75.80
2018-09-20T03:41:49.153Z,75.55
2018-09-20T03:44:18.921Z,73.49
2018-09-20T03:46:48.640Z,73.00
2018-09-20T03:49:18.529Z,73.12
2018-09-20T03:54:39.800Z,74.48
2018-09-20T03:57:09.319Z,75.67
2018-09-20T03:59:38.824Z,75.47
2018-09-20T04:02:07.970Z,75.54
2018-09-20T04:04:37.628Z,75.10
2018-09-20T04:07:08.535Z,72.51
2018-09-20T04:09:37.516Z,70.22
2018-09-20T04:12:06.552Z,70.91
2018-09-20T04:14:36.104Z,68.66
2018-09-20T04:17:05.047Z,67.75
2018-09-20T04:19:33.917Z,67.88
2018-09-20T04:22:03.151Z,67.04
2018-09-20T04:24:32.376Z,67.31
2018-09-20T04:27:02.184Z,66.14
2018-09-20T04:29:32.862Z,65.46
2018-09-20T04:32:01.972Z,65.84
2018-09-20T04:34:31.047Z,64.10
2018-09-20T04:37:01.334Z,63.57
2018-09-20T04:39:30.376Z,62.26
2018-09-20T04:41:59.589Z,61.88
2018-09-20T04:44:28.892Z,61.74
2018-09-20T04:46:58.702Z,60.75
2018-09-20T04:49:27.848Z,61.29
2018-09-20T04:51:57.466Z,59.97
2018-09-20T04:54:26.503Z,61.51
2018-09-20T04:59:38.949Z,60.50
2018-09-20T05:02:08.280Z,60.25
2018-09-20T05:04:37.485Z,59.97
2018-09-20T05:07:07.760Z,60.08
2018-09-20T05:09:37.011Z,59.76
2018-09-20T05:12:06.534Z,60.23
2018-09-20T05:14:36.144Z,60.78
2018-09-20T05:17:05.463Z,61.80
2018-09-20T05:19:34.792Z,61.45
2018-09-20T05:22:03.960Z,61.56
2018-09-20T05:24:33.636Z,61.49
2018-09-20T05:27:06.716Z,61.99
2018-09-20T05:29:37.633Z,62.13
2018-09-20T05:32:07.877Z,62.57
2018-09-20T05:34:46.546Z,62.59
2018-09-20T05:37:24.613Z,62.46
2018-09-20T05:39:56.162Z,62.32
2018-09-20T05:42:30.318Z,62.56
2018-09-20T05:45:01.384Z,61.74
2018-09-20T05:47:31.992Z,61.88
2018-09-20T05:50:06.675Z,61.68
2018-09-20T05:52:40.200Z,62.30
2018-09-20T05:55:12.889Z,61.68
2018-09-20T05:57:42.229Z,61.55
2018-09-20T06:00:13.509Z,62.42
2018-09-20T06:02:42.603Z,62.39
2018-09-20T06:05:12.787Z,61.55
2018-09-20T06:10:22.350Z,62.50
2018-09-20T06:12:51.561Z,61.92
2018-09-20T06:15:22.077Z,62.36
2018-09-20T06:17:51.699Z,61.71
2018-09-20T06:20:22.972Z,62.60
2018-09-20T06:22:53.073Z,62.38
2018-09-20T06:25:23.512Z,63.23
2018-09-20T06:27:52.598Z,62.98
2018-09-20T06:30:22.189Z,62.99
2018-09-20T06:32:51.228Z,63.84
2018-09-20T06:35:22.334Z,62.11
2018-09-20T06:37:51.408Z,62.85
2018-09-20T06:40:22.124Z,62.75
2018-09-20T06:42:51.168Z,62.16
2018-09-20T06:45:20.278Z,62.30
2018-09-20T06:47:50.131Z,62.13
2018-09-20T06:50:20.205Z,62.31
2018-09-20T06:52:50.105Z,61.17
2018-09-20T06:55:20.486Z,61.33
2018-09-20T06:57:52.918Z,61.37
2018-09-20T07:00:22.685Z,61.35
2018-09-20T07:02:51.784Z,59.79
2018-09-20T07:05:21.003Z,60.03
2018-09-20T07:07:52.350Z,60.47
2018-09-20T07:10:21.838Z,60.45
2018-09-20T07:15:37.573Z,60.56
2018-09-20T07:18:06.733Z,59.64
2018-09-20T07:20:35.757Z,59.46
2018-09-20T07:23:05.012Z,59.51
2018-09-20T07:28:22.652Z,59.64
2018-09-20T07:30:52.129Z,59.38
2018-09-20T07:33:21.211Z,59.91
2018-09-20T07:35:50.322Z,60.01
2018-09-20T07:38:19.476Z,59.84
2018-09-20T07:40:49.070Z,60.31
2018-09-20T07:43:18.898Z,59.79
2018-09-20T07:45:48.589Z,59.88
2018-09-20T07:48:19.834Z,60.03
2018-09-20T07:50:49.442Z,58.98
2018-09-20T07:53:19.460Z,59.65
2018-09-20T07:55:48.758Z,58.34
2018-09-20T07:58:19.330Z,57.92
2018-09-20T08:00:49.336Z,57.70
2018-09-20T08:03:18.492Z,58.58
2018-09-20T08:05:47.659Z,57.33
2018-09-20T08:08:18.293Z,56.35
2018-09-20T08:10:48.335Z,56.30
2018-09-20T08:13:19.213Z,57.22
2018-09-20T08:15:48.560Z,56.42
2018-09-20T08:18:18.930Z,56.36
2018-09-20T08:20:48.109Z,56.73
2018-09-20T08:23:18.572Z,55.62
2018-09-20T08:25:49.149Z,55.67
2018-09-20T08:28:19.330Z,54.98
2018-09-20T08:30:48.713Z,54.68
2018-09-20T08:33:17.773Z,53.69
2018-09-20T08:35:46.786Z,54.80
2018-09-20T08:38:16.831Z,55.35
2018-09-20T08:40:46.257Z,54.87
2018-09-20T08:43:15.529Z,54.57
2018-09-20T08:45:45.277Z,52.36
2018-09-20T08:48:14.954Z,52.55
2018-09-20T08:50:44.505Z,52.18
2018-09-20T08:53:14.365Z,52.29
2018-09-20T08:55:43.460Z,52.37
2018-09-20T08:58:12.829Z,52.97
2018-09-20T09:00:42.650Z,52.09
2018-09-20T09:03:11.616Z,51.30
2018-09-20T09:05:40.531Z,51.25
2018-09-20T09:08:10.234Z,49.17
2018-09-20T09:10:39.345Z,49.21
2018-09-20T09:13:08.987Z,50.56
2018-09-20T09:15:37.915Z,49.34
2018-09-20T09:18:06.473Z,48.28
2018-09-20T09:20:35.712Z,47.34
2018-09-20T09:23:04.689Z,47.29
2018-09-20T09:25:34.393Z,46.74
2018-09-20T09:28:03.513Z,45.84
2018-09-20T09:30:34.116Z,44.89
2018-09-20T09:33:03.158Z,44.34
2018-09-20T09:35:32.257Z,44.46
2018-09-20T09:38:01.609Z,43.43
2018-09-20T09:40:30.525Z,42.42
2018-09-20T09:43:00.369Z,42.09
2018-09-20T09:45:29.226Z,42.21
2018-09-20T09:47:58.552Z,41.58
2018-09-20T09:50:27.373Z,42.06
2018-09-20T09:52:56.944Z,41.33
2018-09-20T09:55:25.942Z,41.78
2018-09-20T09:57:55.911Z,41.15
2018-09-20T10:00:31.309Z,41.52
2018-09-20T10:03:00.224Z,43.30
2018-09-20T10:05:29.109Z,42.71
2018-09-20T10:07:58.605Z,43.28
2018-09-20T10:10:27.560Z,42.21
2018-09-20T10:12:57.108Z,42.63
2018-09-20T10:15:26.210Z,43.06
2018-09-20T10:17:55.056Z,43.21
2018-09-20T10:20:23.962Z,43.21
2018-09-20T10:22:52.861Z,43.42
2018-09-20T10:25:22.143Z,42.33
2018-09-20T10:27:51.437Z,42.95
2018-09-20T10:30:20.919Z,42.70
2018-09-20T10:32:49.806Z,43.20
2018-09-20T10:35:19.108Z,43.80
2018-09-20T10:37:48.146Z,43.31
2018-09-20T10:40:17.721Z,42.89
2018-09-20T10:42:47.776Z,43.66
2018-09-20T10:45:17.085Z,42.22
2018-09-20T10:47:46.773Z,42.60
2018-09-20T10:50:16.236Z,43.06
2018-09-20T10:52:46.006Z,42.89
2018-09-20T10:55:14.990Z,43.52
2018-09-20T10:57:44.194Z,43.11
2018-09-20T11:00:13.643Z,42.92
2018-09-20T11:02:42.542Z,42.98
2018-09-20T11:05:11.450Z,43.24
2018-09-20T11:07:40.948Z,43.21
2018-09-20T11:10:09.928Z,42.31
2018-09-20T11:12:38.843Z,42.69
2018-09-20T11:15:08.463Z,42.63
2018-09-20T11:17:37.609Z,43.26
2018-09-20T11:20:06.609Z,42.71
2018-09-20T11:22:35.544Z,42.66
2018-09-20T11:25:05.112Z,44.13
2018-09-20T11:27:34.173Z,43.64
2018-09-20T11:30:04.304Z,44.45
2018-09-20T11:32:33.292Z,43.63
2018-09-20T11:35:02.544Z,44.73
2018-09-20T11:37:31.550Z,44.57
2018-09-20T11:40:02.064Z,44.79
2018-09-20T11:45:09.852Z,44.60
2018-09-20T11:47:39.600Z,45.67
2018-09-20T11:50:08.668Z,45.07
2018-09-20T11:52:38.055Z,44.50
2018-09-20T11:55:06.989Z,44.72
2018-09-20T11:57:35.949Z,44.65
2018-09-20T12:00:05.578Z,45.47
2018-09-20T12:02:34.423Z,45.33
2018-09-20T12:05:04.152Z,45.50
2018-09-20T12:07:33.713Z,45.72
2018-09-20T12:10:02.851Z,45.34
2018-09-20T12:12:31.804Z,45.61
2018-09-20T12:15:01.474Z,45.87
2018-09-20T12:17:30.479Z,46.58
2018-09-20T12:19:59.455Z,46.68
2018-09-20T12:22:28.441Z,45.83
2018-09-20T12:24:58.050Z,46.50
2018-09-20T12:27:26.907Z,46.67
2018-09-20T12:29:56.818Z,46.30
2018-09-20T12:32:25.770Z,45.96
2018-09-20T12:34:54.700Z,47.11
2018-09-20T12:37:30.273Z,46.17
2018-09-20T12:39:59.273Z,46.94
2018-09-20T12:42:28.214Z,46.52
2018-09-20T12:44:57.103Z,46.44
2018-09-20T12:47:26.590Z,47.11
2018-09-20T12:49:55.501Z,47.98
2018-09-20T12:52:25.243Z,48.21
2018-09-20T12:54:54.665Z,48.32
2018-09-20T12:57:23.969Z,48.29
2018-09-20T12:59:53.338Z,48.29
2018-09-20T13:02:22.617Z,48.19
2018-09-20T13:04:52.097Z,47.84
2018-09-20T13:07:22.201Z,47.92
2018-09-20T13:09:51.158Z,47.62
2018-09-20T13:12:20.898Z,48.56
2018-09-20T13:14:50.128Z,48.69
2018-09-20T13:17:19.223Z,48.91
2018-09-20T13:19:48.281Z,47.99
2018-09-20T13:22:17.461Z,49.20
2018-09-20T13:24:46.555Z,48.73
2018-09-20T13:27:16.532Z,49.15
2018-09-20T13:29:46.077Z,50.09
2018-09-20T13:32:15.021Z,48.96
2018-09-20T13:34:44.557Z,50.03
2018-09-20T13:37:13.450Z,50.16
2018-09-20T13:39:42.343Z,50.16
2018-09-20T13:42:11.725Z,50.15
2018-09-20T13:44:40.584Z,50.39
2018-09-20T13:47:11.127Z,49.16
2018-09-20T13:49:40.000Z,48.27
2018-09-20T13:52:09.630Z,47.99
2018-09-20T13:54:38.470Z,48.53
2018-09-20T13:57:07.410Z,49.34
2018-09-20T13:59:37.882Z,49.05
2018-09-20T14:02:07.035Z,50.02
2018-09-20T14:04:35.930Z,49.17
2018-09-20T14:07:05.738Z,49.00
2018-09-20T14:09:34.576Z,49.87
2018-09-20T14:12:04.417Z,49.71
2018-09-20T14:14:34.056Z,49.59
2018-09-20T14:17:03.143Z,49.15
2018-09-20T14:19:32.036Z,48.06
2018-09-20T14:22:01.342Z,47.25
2018-09-20T14:24:30.199Z,48.64
2018-09-20T14:26:59.689Z,47.86
2018-09-20T14:29:29.139Z,49.26
2018-09-20T14:31:58.363Z,48.56
2018-09-20T14:34:27.202Z,48.51
2018-09-20T14:36:56.307Z,48.66
2018-09-20T14:39:25.275Z,49.14
2018-09-20T14:41:54.161Z,49.05
2018-09-20T14:44:23.240Z,49.61
2018-09-20T14:46:52.523Z,50.49
2018-09-20T14:49:21.404Z,50.37
2018-09-20T14:51:50.836Z,50.47
2018-09-20T14:54:19.684Z,50.38
2018-09-20T14:56:48.813Z,51.17
2018-09-20T14:59:19.124Z,50.89
2018-09-20T15:01:48.099Z,50.00
2018-09-20T15:04:17.019Z,49.79
2018-09-20T15:06:46.947Z,49.69
2018-09-20T15:09:15.711Z,50.63
2018-09-20T15:11:45.093Z,49.77
2018-09-20T15:14:14.403Z,50.59
2018-09-20T15:16:43.166Z,50.51
2018-09-20T15:19:11.970Z,50.12
2018-09-20T15:21:40.867Z,50.05
2018-09-20T15:24:09.708Z,50.87
2018-09-20T15:26:39.009Z,50.36
2018-09-20T15:29:08.408Z,50.94
2018-09-20T15:31:37.361Z,50.90
2018-09-20T15:34:06.459Z,51.64
2018-09-20T15:36:35.348Z,51.02
2018-09-20T15:39:05.653Z,51.39
2018-09-20T15:41:34.580Z,51.45
2018-09-20T15:44:03.970Z,52.48
2018-09-20T15:46:33.734Z,51.79
2018-09-20T15:49:02.722Z,52.37
2018-09-20T15:51:32.794Z,52.39
2018-09-20T15:54:02.400Z,51.37
2018-09-20T15:56:31.444Z,51.97
2018-09-20T15:59:00.981Z,52.49
2018-09-20T16:01:30.520Z,52.41
2018-09-20T16:03:59.345Z,52.86
2018-09-20T16:06:28.168Z,52.92
2018-09-20T16:08:57.875Z,52.56
2018-09-20T16:11:27.294Z,53.22
2018-09-20T16:13:56.727Z,52.81
2018-09-20T16:16:25.534Z,53.18
2018-09-20T16:18:54.514Z,53.17
2018-09-20T16:21:23.371Z,54.15
2018-09-20T16:23:52.193Z,53.63
2018-09-20T16:26:21.559Z,54.78
2018-09-20T16:29:15.808Z,54.63
2018-09-20T16:32:03.258Z,55.34
2018-09-20T16:34:46.930Z,56.12
2018-09-20T16:37:27.382Z,56.71
2018-09-20T16:40:00.963Z,57.33
2018-09-20T16:42:32.092Z,56.87
2018-09-20T16:45:01.375Z,57.22
2018-09-20T16:47:31.333Z,57.21
2018-09-20T16:50:00.326Z,57.54
2018-09-20T16:52:33.750Z,57.51
2018-09-20T16:55:27.431Z,57.81
2018-09-20T16:57:57.954Z,57.62
2018-09-20T17:03:18.098Z,58.98
2018-09-20T17:06:35.376Z,58.78
2018-09-20T17:17:42.306Z,58.13
2018-09-20T17:26:33.049Z,56.99
2018-09-20T17:32:47.465Z,57.63
2018-09-20T17:38:44.136Z,56.99
2018-09-20T17:41:19.300Z,56.62
2018-09-20T17:43:52.798Z,57.30
2018-09-20T17:46:29.736Z,57.34
2018-09-20T17:52:45.939Z,57.50
2018-09-20T17:55:25.669Z,57.98
2018-09-20T17:58:42.363Z,57.92
2018-09-20T18:04:17.186Z,58.79
2018-09-20T18:06:51.089Z,58.14
2018-09-20T18:09:20.490Z,58.61
2018-09-20T18:14:54.907Z,58.33
2018-09-20T18:17:26.767Z,58.97
2018-09-20T18:19:57.948Z,59.49
2018-09-20T18:22:28.287Z,59.80
2018-09-20T18:24:58.163Z,60.07
2018-09-20T18:30:15.299Z,59.98
2018-09-20T18:32:44.759Z,60.24
2018-09-20T18:35:17.941Z,61.37
2018-09-20T18:40:28.787Z,61.38
2018-09-20T18:42:57.867Z,62.17
2018-09-20T18:45:27.448Z,61.51
2018-09-20T18:47:57.566Z,61.68
2018-09-20T18:50:27.412Z,62.57
2018-09-20T18:52:57.756Z,62.03
2018-09-20T18:55:27.918Z,61.93
2018-09-20T18:57:58.511Z,61.74
2018-09-20T19:00:28.250Z,62.02
2018-09-20T19:03:01.470Z,62.48
2018-09-20T19:05:30.698Z,62.51
2018-09-20T19:08:00.382Z,63.06
2018-09-20T19:10:29.914Z,62.90
2018-09-20T19:12:59.861Z,63.52
2018-09-20T19:15:28.805Z,64.00
2018-09-20T19:17:57.762Z,63.14
2018-09-20T19:20:27.133Z,64.04
2018-09-20T19:22:56.148Z,64.30
2018-09-20T19:25:26.021Z,64.59
2018-09-20T19:27:55.436Z,65.29
2018-09-20T19:30:25.479Z,65.04
2018-09-20T19:32:54.613Z,64.67
2018-09-20T19:35:23.582Z,65.14
2018-09-20T19:40:36.645Z,65.84
2018-09-20T19:43:25.008Z,65.32
2018-09-20T19:45:54.580Z,65.88
2018-09-20T19:48:24.469Z,65.29
2018-09-20T19:50:55.084Z,66.06
2018-09-20T19:53:27.595Z,66.38
2018-09-20T19:58:43.169Z,66.23
2018-09-20T20:01:12.300Z,65.95
2018-09-20T20:03:42.468Z,66.41
2018-09-20T20:06:12.393Z,66.23
2018-09-20T20:08:42.693Z,65.87
2018-09-20T20:11:12.070Z,66.28
2018-09-20T20:13:41.705Z,66.43
2018-09-20T20:16:10.879Z,65.97
2018-09-20T20:18:41.763Z,66.06
2018-09-20T20:21:10.711Z,66.45
2018-09-20T20:23:41.316Z,66.68
2018-09-20T20:26:11.988Z,67.06
2018-09-20T20:28:41.914Z,67.29
2018-09-20T20:31:10.830Z,67.48
2018-09-20T20:33:39.828Z,67.09
2018-09-20T20:36:09.112Z,67.46
2018-09-20T20:38:38.093Z,67.80
2018-09-20T20:41:07.215Z,67.60
2018-09-20T20:43:36.335Z,68.04
2018-09-20T20:46:06.110Z,68.27
2018-09-20T20:48:35.305Z,67.77
2018-09-20T20:51:04.996Z,67.56
2018-09-20T20:53:34.776Z,67.80
2018-09-20T20:56:04.503Z,68.40
2018-09-20T20:58:35.941Z,67.75
2018-09-20T21:01:05.161Z,68.86
2018-09-20T21:03:35.970Z,68.75
2018-09-20T21:06:06.681Z,68.54
2018-09-20T21:08:36.971Z,68.63
2018-09-20T21:11:05.815Z,68.69
2018-09-20T21:13:35.184Z,68.96
2018-09-20T21:16:04.657Z,70.24
2018-09-20T21:18:33.778Z,69.83
2018-09-20T21:21:02.860Z,70.32
2018-09-20T21:23:31.785Z,70.59
2018-09-20T21:26:01.199Z,71.10
2018-09-20T21:28:31.261Z,70.65
2018-09-20T21:31:00.391Z,71.04
2018-09-20T21:33:29.745Z,71.00
2018-09-20T21:35:59.218Z,70.49
2018-09-20T21:38:28.237Z,70.24
2018-09-20T21:40:57.731Z,70.46
2018-09-20T21:43:28.242Z,70.35
2018-09-20T21:46:02.249Z,70.09
2018-09-20T21:48:31.500Z,70.00
2018-09-20T21:51:01.682Z,70.34
2018-09-20T21:53:31.977Z,70.05
2018-09-20T21:56:02.403Z,69.47
2018-09-20T21:58:34.119Z,70.25
2018-09-20T22:01:07.860Z,69.43
2018-09-20T22:03:41.323Z,69.74
2018-09-20T22:06:15.193Z,69.49
2018-09-20T22:08:46.697Z,69.98
2018-09-20T22:11:16.339Z,70.47
2018-09-20T22:13:48.087Z,70.11
2018-09-20T22:16:17.666Z,70.00
2018-09-20T22:18:47.737Z,70.91
2018-09-20T22:21:17.479Z,70.96
2018-09-20T22:23:46.845Z,70.80
2018-09-20T22:26:19.603Z,71.47
2018-09-20T22:28:49.860Z,70.88
2018-09-20T22:31:23.558Z,71.86
2018-09-20T22:34:01.205Z,71.46
2018-09-20T22:36:42.024Z,71.93
2018-09-20T22:39:21.507Z,71.79
2018-09-20T22:41:54.655Z,71.63
2018-09-20T22:44:25.102Z,72.11
2018-09-20T22:46:55.208Z,72.11
2018-09-20T22:49:27.133Z,72.48
2018-09-20T22:51:57.451Z,73.09
2018-09-20T22:54:27.932Z,72.32
2018-09-20T22:57:03.323Z,72.52
2018-09-20T22:59:34.502Z,72.84
2018-09-20T23:02:08.120Z,73.57
2018-09-20T23:04:38.320Z,74.03
2018-09-20T23:07:08.586Z,74.70
2018-09-20T23:09:38.935Z,74.66
2018-09-20T23:12:07.760Z,75.15
2018-09-20T23:14:37.392Z,74.81
2018-09-20T23:17:07.041Z,74.75
2018-09-20T23:19:38.147Z,75.52
2018-09-20T23:22:07.586Z,75.87
2018-09-20T23:24:38.434Z,75.96
2018-09-20T23:27:08.436Z,76.07
2018-09-20T23:29:38.641Z,75.74
2018-09-20T23:32:07.959Z,76.06
2018-09-20T23:34:37.339Z,76.55
2018-09-20T23:37:36.897Z,77.55
2018-09-20T23:40:06.236Z,77.72
2018-09-20T23:42:37.567Z,76.66
2018-09-20T23:45:07.552Z,77.61
2018-09-20T23:47:39.852Z,77.22
2018-09-20T23:50:09.157Z,76.89
2018-09-20T23:52:39.268Z,77.78
2018-09-20T23:55:10.034Z,77.19
2018-09-20T23:57:40.571Z,77.53
